Aérodrome :
LOGIN :

S'inscrire | Disclaimer

   EN    FR    IT 

 










Légende :    VFR   VFR Marginal   IFR   IFR Intensif   IFR Très Intensif
Visi : 
Plafond : 
>= 8 km
>= 3000ft
5 à 8 km
1000 à 3000 ft
1500m à 5 km
500 à 1000 ft
800 à 1500m
200 à 500 ft
< 800m
< 200 ft
Symboles :   Orages  Brouillard  Fortes neiges  Fortes précipitations  Vent > 20 kt
SIGMETs :   Divers  Orages  Givrage  Turbulence  Onde Orograph.  Cendres Volcan.







- Altitude de l'aérodrome : 44 ft
- Code IATA : SOU
- Voir les cartes d'approche


EGHI - Southampton

DERNIER METAR :
  • 251350Z 36009KT 330V050 9999 SCT046 09/M05 Q1014

METARs EXPIRÉS :
  • 251320Z 01011KT 340V050 9999 SCT044 08/M06 Q1014
  • 251250Z 02012KT 330V050 9999 SCT044 09/M04 Q1014
  • 251220Z 34011KT 300V020 9999 SCT044 08/M04 Q1014
  • 251150Z 36010KT 290V050 9999 SCT044 08/M03 Q1014

TAF TAF EGHI
Valide du 25 à 12h jusqu'au 25 à 21h UTC


251103Z 2512/2521 33009KT 9999 FEW035
PROB30
TEMPO 2512/2519 36015G25KT 8000 SHRAGS
ATIS : +44 23 8062 7103
Pas de NOTAMs connus pour ce terrain.



MET'MAP, la Météo Aéronautique d'un coup d'oeil ! - Copyright ORBIFLY Décembre 2007 - Disclaimer

ORBIFLY MET'MAP TEAM :

Programmation & Développement : Alexandra Zaïnal
Conception & Développement : Baudouin d'Aumeries
Co-Programmation & Développement : Marc-Olivier Méhu
Soutien technique & logistique : Manuel Goepfert

Contact : metmap@orbifly.com




SOURCES & CREDITS :

   NOAA